sensor_id;sensor_type;location;lat;lon;timestamp;pressure;altitude;pressure_sealevel;temperature
68952;BMP180;56000;51.146;17.112;2023-05-07T00:00:07;100629.40;;;9.00
68952;BMP180;56000;51.146;17.112;2023-05-07T00:02:57;100631.00;;;9.06
68952;BMP180;56000;51.146;17.112;2023-05-07T00:05:25;100628.20;;;9.04
68952;BMP180;56000;51.146;17.112;2023-05-07T00:07:54;100632.80;;;9.00
68952;BMP180;56000;51.146;17.112;2023-05-07T00:10:26;100631.40;;;9.00
68952;BMP180;56000;51.146;17.112;2023-05-07T00:12:54;100631.80;;;9.00
68952;BMP180;56000;51.146;17.112;2023-05-07T00:15:23;100633.20;;;9.00
68952;BMP180;56000;51.146;17.112;2023-05-07T00:17:52;100633.60;;;9.00
68952;BMP180;56000;51.146;17.112;2023-05-07T00:20:20;100629.40;;;9.06
68952;BMP180;56000;51.146;17.112;2023-05-07T00:22:49;100634.40;;;9.10
68952;BMP180;56000;51.146;17.112;2023-05-07T00:25:18;100641.20;;;9.10
68952;BMP180;56000;51.146;17.112;2023-05-07T00:27:47;100643.80;;;9.10
68952;BMP180;56000;51.146;17.112;2023-05-07T00:30:16;100637.20;;;9.10
68952;BMP180;56000;51.146;17.112;2023-05-07T00:32:45;100633.60;;;9.04
68952;BMP180;56000;51.146;17.112;2023-05-07T00:35:14;100639.60;;;9.08
68952;BMP180;56000;51.146;17.112;2023-05-07T00:37:42;100642.00;;;9.00
68952;BMP180;56000;51.146;17.112;2023-05-07T00:40:12;100641.80;;;9.00
68952;BMP180;56000;51.146;17.112;2023-05-07T00:42:41;100643.60;;;9.04
68952;BMP180;56000;51.146;17.112;2023-05-07T00:45:10;100644.00;;;9.02
68952;BMP180;56000;51.146;17.112;2023-05-07T00:47:39;100646.60;;;9.04
68952;BMP180;56000;51.146;17.112;2023-05-07T00:50:10;100653.00;;;9.02
68952;BMP180;56000;51.146;17.112;2023-05-07T00:52:40;100653.20;;;9.00
68952;BMP180;56000;51.146;17.112;2023-05-07T00:55:10;100652.60;;;9.02
68952;BMP180;56000;51.146;17.112;2023-05-07T00:57:41;100650.40;;;9.10
68952;BMP180;56000;51.146;17.112;2023-05-07T01:00:11;100652.40;;;9.10
68952;BMP180;56000;51.146;17.112;2023-05-07T01:02:41;100654.80;;;9.02
68952;BMP180;56000;51.146;17.112;2023-05-07T01:05:12;100655.00;;;9.10
68952;BMP180;56000;51.146;17.112;2023-05-07T01:07:42;100653.00;;;9.10
68952;BMP180;56000;51.146;17.112;2023-05-07T01:10:11;100654.20;;;9.10
68952;BMP180;56000;51.146;17.112;2023-05-07T01:12:40;100652.60;;;9.20
68952;BMP180;56000;51.146;17.112;2023-05-07T01:15:10;100656.40;;;9.20
68952;BMP180;56000;51.146;17.112;2023-05-07T01:17:41;100659.80;;;9.20
68952;BMP180;56000;51.146;17.112;2023-05-07T01:20:15;100658.60;;;9.20
68952;BMP180;56000;51.146;17.112;2023-05-07T01:22:45;100651.80;;;9.12
68952;BMP180;56000;51.146;17.112;2023-05-07T01:25:14;100658.00;;;9.14
68952;BMP180;56000;51.146;17.112;2023-05-07T01:27:47;100649.20;;;9.20
68952;BMP180;56000;51.146;17.112;2023-05-07T01:30:16;100650.00;;;9.20
68952;BMP180;56000;51.146;17.112;2023-05-07T01:32:47;100648.00;;;9.20
68952;BMP180;56000;51.146;17.112;2023-05-07T01:35:19;100646.20;;;9.20
68952;BMP180;56000;51.146;17.112;2023-05-07T01:37:48;100648.80;;;9.20
68952;BMP180;56000;51.146;17.112;2023-05-07T01:40:18;100654.80;;;9.12
68952;BMP180;56000;51.146;17.112;2023-05-07T01:42:47;100654.00;;;9.10
68952;BMP180;56000;51.146;17.112;2023-05-07T01:45:16;100660.20;;;9.10
68952;BMP180;56000;51.146;17.112;2023-05-07T01:47:45;100666.80;;;9.02
68952;BMP180;56000;51.146;17.112;2023-05-07T01:50:15;100662.00;;;9.00
68952;BMP180;56000;51.146;17.112;2023-05-07T01:52:45;100662.60;;;9.00
68952;BMP180;56000;51.146;17.112;2023-05-07T01:55:14;100664.40;;;9.00
68952;BMP180;56000;51.146;17.112;2023-05-07T01:57:43;100661.80;;;8.90
68952;BMP180;56000;51.146;17.112;2023-05-07T02:00:13;100659.60;;;8.90
68952;BMP180;56000;51.146;17.112;2023-05-07T02:02:45;100665.40;;;8.90
68952;BMP180;56000;51.146;17.112;2023-05-07T02:05:22;100663.60;;;8.90
68952;BMP180;56000;51.146;17.112;2023-05-07T02:07:58;100659.20;;;8.88
68952;BMP180;56000;51.146;17.112;2023-05-07T02:10:28;100666.00;;;8.80
68952;BMP180;56000;51.146;17.112;2023-05-07T02:12:57;100675.00;;;8.80
68952;BMP180;56000;51.146;17.112;2023-05-07T02:15:25;100670.80;;;8.80
68952;BMP180;56000;51.146;17.112;2023-05-07T02:18:02;100673.40;;;8.80
68952;BMP180;56000;51.146;17.112;2023-05-07T02:20:31;100670.20;;;8.80
68952;BMP180;56000;51.146;17.112;2023-05-07T02:22:59;100672.80;;;8.80
68952;BMP180;56000;51.146;17.112;2023-05-07T02:25:29;100672.40;;;8.80
68952;BMP180;56000;51.146;17.112;2023-05-07T02:27:57;100668.20;;;8.80
68952;BMP180;56000;51.146;17.112;2023-05-07T02:30:36;100669.80;;;8.80
68952;BMP180;56000;51.146;17.112;2023-05-07T02:33:05;100669.40;;;8.80
68952;BMP180;56000;51.146;17.112;2023-05-07T02:35:34;100665.80;;;8.80
68952;BMP180;56000;51.146;17.112;2023-05-07T02:38:02;100668.80;;;8.80
68952;BMP180;56000;51.146;17.112;2023-05-07T02:40:32;100673.00;;;8.80
68952;BMP180;56000;51.146;17.112;2023-05-07T02:43:01;100674.80;;;8.80
68952;BMP180;56000;51.146;17.112;2023-05-07T02:45:30;100675.20;;;8.70
68952;BMP180;56000;51.146;17.112;2023-05-07T02:47:59;100683.80;;;8.70
68952;BMP180;56000;51.146;17.112;2023-05-07T02:50:28;100686.00;;;8.70
68952;BMP180;56000;51.146;17.112;2023-05-07T02:52:57;100683.00;;;8.70
68952;BMP180;56000;51.146;17.112;2023-05-07T02:55:26;100691.40;;;8.70
68952;BMP180;56000;51.146;17.112;2023-05-07T02:57:55;100690.40;;;8.70
68952;BMP180;56000;51.146;17.112;2023-05-07T03:00:25;100689.80;;;8.70
68952;BMP180;56000;51.146;17.112;2023-05-07T03:03:05;100690.00;;;8.70
68952;BMP180;56000;51.146;17.112;2023-05-07T03:05:34;100691.00;;;8.70
68952;BMP180;56000;51.146;17.112;2023-05-07T03:08:03;100688.80;;;8.66
68952;BMP180;56000;51.146;17.112;2023-05-07T03:10:32;100690.40;;;8.60
68952;BMP180;56000;51.146;17.112;2023-05-07T03:13:01;100691.80;;;8.60
68952;BMP180;56000;51.146;17.112;2023-05-07T03:15:30;100693.00;;;8.60
68952;BMP180;56000;51.146;17.112;2023-05-07T03:17:58;100696.00;;;8.60
68952;BMP180;56000;51.146;17.112;2023-05-07T03:20:27;100701.80;;;8.60
68952;BMP180;56000;51.146;17.112;2023-05-07T03:22:56;100697.60;;;8.60
68952;BMP180;56000;51.146;17.112;2023-05-07T03:25:25;100703.80;;;8.60
68952;BMP180;56000;51.146;17.112;2023-05-07T03:27:54;100708.00;;;8.60
68952;BMP180;56000;51.146;17.112;2023-05-07T03:30:24;100707.60;;;8.60
68952;BMP180;56000;51.146;17.112;2023-05-07T03:32:53;100710.40;;;8.60
68952;BMP180;56000;51.146;17.112;2023-05-07T03:35:22;100713.80;;;8.60
68952;BMP180;56000;51.146;17.112;2023-05-07T03:37:51;100716.00;;;8.60
68952;BMP180;56000;51.146;17.112;2023-05-07T03:40:20;100720.60;;;8.60
68952;BMP180;56000;51.146;17.112;2023-05-07T03:42:51;100718.40;;;8.60
68952;BMP180;56000;51.146;17.112;2023-05-07T03:45:21;100717.80;;;8.60
68952;BMP180;56000;51.146;17.112;2023-05-07T03:47:58;100716.40;;;8.60
68952;BMP180;56000;51.146;17.112;2023-05-07T03:50:26;100718.20;;;8.60
68952;BMP180;56000;51.146;17.112;2023-05-07T03:52:55;100719.00;;;8.60
68952;BMP180;56000;51.146;17.112;2023-05-07T03:55:24;100726.60;;;8.60
68952;BMP180;56000;51.146;17.112;2023-05-07T03:57:56;100731.40;;;8.60
68952;BMP180;56000;51.146;17.112;2023-05-07T04:00:26;100736.80;;;8.60
68952;BMP180;56000;51.146;17.112;2023-05-07T04:02:58;100740.00;;;8.60
68952;BMP180;56000;51.146;17.112;2023-05-07T04:05:30;100741.80;;;8.62
68952;BMP180;56000;51.146;17.112;2023-05-07T04:08:01;100747.60;;;8.64
68952;BMP180;56000;51.146;17.112;2023-05-07T04:10:38;100755.20;;;8.60
68952;BMP180;56000;51.146;17.112;2023-05-07T04:13:09;100754.60;;;8.60
68952;BMP180;56000;51.146;17.112;2023-05-07T04:15:38;100761.80;;;8.60
68952;BMP180;56000;51.146;17.112;2023-05-07T04:18:11;100759.20;;;8.60
68952;BMP180;56000;51.146;17.112;2023-05-07T04:20:42;100756.60;;;8.60
68952;BMP180;56000;51.146;17.112;2023-05-07T04:23:12;100757.60;;;8.70
68952;BMP180;56000;51.146;17.112;2023-05-07T04:25:41;100759.20;;;8.70
68952;BMP180;56000;51.146;17.112;2023-05-07T04:28:17;100766.20;;;8.74
68952;BMP180;56000;51.146;17.112;2023-05-07T04:30:46;100770.40;;;8.80
68952;BMP180;56000;51.146;17.112;2023-05-07T04:33:15;100771.60;;;8.90
68952;BMP180;56000;51.146;17.112;2023-05-07T04:35:44;100780.60;;;9.00
68952;BMP180;56000;51.146;17.112;2023-05-07T04:38:14;100781.00;;;9.00
68952;BMP180;56000;51.146;17.112;2023-05-07T04:40:44;100786.40;;;9.10
68952;BMP180;56000;51.146;17.112;2023-05-07T04:43:14;100786.20;;;9.20
68952;BMP180;56000;51.146;17.112;2023-05-07T04:45:47;100779.20;;;9.26
68952;BMP180;56000;51.146;17.112;2023-05-07T04:48:17;100784.80;;;9.30
68952;BMP180;56000;51.146;17.112;2023-05-07T04:50:49;100788.20;;;9.40
68952;BMP180;56000;51.146;17.112;2023-05-07T04:53:18;100790.00;;;9.40
68952;BMP180;56000;51.146;17.112;2023-05-07T04:55:47;100792.00;;;9.40
68952;BMP180;56000;51.146;17.112;2023-05-07T04:58:16;100791.20;;;9.40
68952;BMP180;56000;51.146;17.112;2023-05-07T05:00:45;100793.00;;;9.40
68952;BMP180;56000;51.146;17.112;2023-05-07T05:03:14;100796.80;;;9.50
68952;BMP180;56000;51.146;17.112;2023-05-07T05:05:43;100798.60;;;9.50
68952;BMP180;56000;51.146;17.112;2023-05-07T05:08:12;100803.80;;;9.50
68952;BMP180;56000;51.146;17.112;2023-05-07T05:10:41;100810.20;;;9.50
68952;BMP180;56000;51.146;17.112;2023-05-07T05:13:11;100814.40;;;9.44
68952;BMP180;56000;51.146;17.112;2023-05-07T05:15:41;100822.60;;;9.40
68952;BMP180;56000;51.146;17.112;2023-05-07T05:18:10;100820.20;;;9.34
68952;BMP180;56000;51.146;17.112;2023-05-07T05:20:40;100819.80;;;9.30
68952;BMP180;56000;51.146;17.112;2023-05-07T05:23:09;100829.20;;;9.30
68952;BMP180;56000;51.146;17.112;2023-05-07T05:25:38;100836.00;;;9.30
68952;BMP180;56000;51.146;17.112;2023-05-07T05:28:07;100837.20;;;9.22
68952;BMP180;56000;51.146;17.112;2023-05-07T05:30:36;100830.40;;;9.20
68952;BMP180;56000;51.146;17.112;2023-05-07T05:33:05;100841.40;;;9.20
68952;BMP180;56000;51.146;17.112;2023-05-07T05:35:34;100839.60;;;9.22
68952;BMP180;56000;51.146;17.112;2023-05-07T05:38:04;100843.00;;;9.30
68952;BMP180;56000;51.146;17.112;2023-05-07T05:40:34;100841.80;;;9.20
68952;BMP180;56000;51.146;17.112;2023-05-07T05:43:03;100839.00;;;9.20
68952;BMP180;56000;51.146;17.112;2023-05-07T05:45:32;100837.00;;;9.24
68952;BMP180;56000;51.146;17.112;2023-05-07T05:48:00;100845.00;;;9.30
68952;BMP180;56000;51.146;17.112;2023-05-07T05:50:30;100845.80;;;9.40
68952;BMP180;56000;51.146;17.112;2023-05-07T05:53:00;100849.40;;;9.50
68952;BMP180;56000;51.146;17.112;2023-05-07T05:55:29;100844.20;;;9.60
68952;BMP180;56000;51.146;17.112;2023-05-07T05:57:57;100837.40;;;9.64
68952;BMP180;56000;51.146;17.112;2023-05-07T06:00:26;100844.00;;;9.70
68952;BMP180;56000;51.146;17.112;2023-05-07T06:03:01;100843.60;;;9.70
68952;BMP180;56000;51.146;17.112;2023-05-07T06:05:30;100847.00;;;9.70
68952;BMP180;56000;51.146;17.112;2023-05-07T06:07:59;100849.40;;;9.70
68952;BMP180;56000;51.146;17.112;2023-05-07T06:10:31;100853.20;;;9.80
68952;BMP180;56000;51.146;17.112;2023-05-07T06:13:00;100854.80;;;9.90
68952;BMP180;56000;51.146;17.112;2023-05-07T06:15:30;100848.80;;;9.90
68952;BMP180;56000;51.146;17.112;2023-05-07T06:18:02;100848.20;;;9.90
68952;BMP180;56000;51.146;17.112;2023-05-07T06:20:31;100856.80;;;9.90
68952;BMP180;56000;51.146;17.112;2023-05-07T06:22:59;100857.80;;;10.00
68952;BMP180;56000;51.146;17.112;2023-05-07T06:25:29;100855.40;;;10.00
68952;BMP180;56000;51.146;17.112;2023-05-07T06:27:57;100856.20;;;10.10
68952;BMP180;56000;51.146;17.112;2023-05-07T06:30:26;100865.20;;;10.10
68952;BMP180;56000;51.146;17.112;2023-05-07T06:32:55;100867.40;;;10.10
68952;BMP180;56000;51.146;17.112;2023-05-07T06:35:24;100870.00;;;10.10
68952;BMP180;56000;51.146;17.112;2023-05-07T06:37:52;100877.60;;;10.10
68952;BMP180;56000;51.146;17.112;2023-05-07T06:40:24;100880.60;;;10.10
68952;BMP180;56000;51.146;17.112;2023-05-07T06:42:53;100880.20;;;10.00
68952;BMP180;56000;51.146;17.112;2023-05-07T06:45:35;100889.20;;;10.00
68952;BMP180;56000;51.146;17.112;2023-05-07T06:48:05;100885.60;;;9.90
68952;BMP180;56000;51.146;17.112;2023-05-07T06:50:38;100890.80;;;9.90
68952;BMP180;56000;51.146;17.112;2023-05-07T06:53:07;100894.80;;;9.90
68952;BMP180;56000;51.146;17.112;2023-05-07T06:55:36;100904.20;;;9.80
68952;BMP180;56000;51.146;17.112;2023-05-07T06:58:06;100902.60;;;9.80
68952;BMP180;56000;51.146;17.112;2023-05-07T07:00:34;100906.40;;;9.80
68952;BMP180;56000;51.146;17.112;2023-05-07T07:03:03;100900.80;;;9.80
68952;BMP180;56000;51.146;17.112;2023-05-07T07:05:32;100894.40;;;9.80
68952;BMP180;56000;51.146;17.112;2023-05-07T07:08:01;100894.60;;;9.92
68952;BMP180;56000;51.146;17.112;2023-05-07T07:10:29;100899.60;;;10.10
68952;BMP180;56000;51.146;17.112;2023-05-07T07:12:58;100900.80;;;10.26
68952;BMP180;56000;51.146;17.112;2023-05-07T07:15:27;100903.40;;;10.22
68952;BMP180;56000;51.146;17.112;2023-05-07T07:17:56;100903.00;;;10.30
68952;BMP180;56000;51.146;17.112;2023-05-07T07:20:25;100902.60;;;10.30
68952;BMP180;56000;51.146;17.112;2023-05-07T07:22:54;100912.20;;;10.30
68952;BMP180;56000;51.146;17.112;2023-05-07T07:25:23;100917.40;;;10.42
68952;BMP180;56000;51.146;17.112;2023-05-07T07:27:51;100913.40;;;10.70
68952;BMP180;56000;51.146;17.112;2023-05-07T07:30:21;100918.00;;;11.00
68952;BMP180;56000;51.146;17.112;2023-05-07T07:32:50;100916.00;;;11.20
68952;BMP180;56000;51.146;17.112;2023-05-07T07:35:19;100916.40;;;11.40
68952;BMP180;56000;51.146;17.112;2023-05-07T07:37:49;100924.40;;;11.50
68952;BMP180;56000;51.146;17.112;2023-05-07T07:40:18;100924.80;;;11.30
68952;BMP180;56000;51.146;17.112;2023-05-07T07:42:47;100933.60;;;11.30
68952;BMP180;56000;51.146;17.112;2023-05-07T07:45:16;100941.40;;;11.20
68952;BMP180;56000;51.146;17.112;2023-05-07T07:47:46;100942.40;;;11.00
68952;BMP180;56000;51.146;17.112;2023-05-07T07:50:15;100949.20;;;10.82
68952;BMP180;56000;51.146;17.112;2023-05-07T07:53:03;100954.20;;;10.70
68952;BMP180;56000;51.146;17.112;2023-05-07T07:55:32;100958.00;;;10.70
68952;BMP180;56000;51.146;17.112;2023-05-07T07:58:06;100964.00;;;10.60
68952;BMP180;56000;51.146;17.112;2023-05-07T08:00:35;100964.20;;;10.50
68952;BMP180;56000;51.146;17.112;2023-05-07T08:03:04;100965.40;;;10.40
68952;BMP180;56000;51.146;17.112;2023-05-07T08:05:37;100964.80;;;10.14
68952;BMP180;56000;51.146;17.112;2023-05-07T08:08:06;100970.40;;;10.00
68952;BMP180;56000;51.146;17.112;2023-05-07T08:10:35;100962.60;;;9.88
68952;BMP180;56000;51.146;17.112;2023-05-07T08:13:09;100962.40;;;9.80
68952;BMP180;56000;51.146;17.112;2023-05-07T08:15:39;100965.00;;;9.80
68952;BMP180;56000;51.146;17.112;2023-05-07T08:18:07;100966.60;;;9.76
68952;BMP180;56000;51.146;17.112;2023-05-07T08:20:37;100972.60;;;9.74
68952;BMP180;56000;51.146;17.112;2023-05-07T08:23:08;100973.80;;;9.80
68952;BMP180;56000;51.146;17.112;2023-05-07T08:25:38;100974.60;;;9.82
68952;BMP180;56000;51.146;17.112;2023-05-07T08:28:06;100980.40;;;9.90
68952;BMP180;56000;51.146;17.112;2023-05-07T08:30:38;100978.40;;;9.90
68952;BMP180;56000;51.146;17.112;2023-05-07T08:33:08;100980.60;;;9.90
68952;BMP180;56000;51.146;17.112;2023-05-07T08:35:37;100985.60;;;9.80
68952;BMP180;56000;51.146;17.112;2023-05-07T08:38:06;100993.00;;;9.70
68952;BMP180;56000;51.146;17.112;2023-05-07T08:40:36;100990.40;;;9.70
68952;BMP180;56000;51.146;17.112;2023-05-07T08:43:07;100993.20;;;9.70
68952;BMP180;56000;51.146;17.112;2023-05-07T08:45:37;100997.60;;;9.70
68952;BMP180;56000;51.146;17.112;2023-05-07T08:48:14;101000.20;;;9.74
68952;BMP180;56000;51.146;17.112;2023-05-07T08:50:44;101005.20;;;9.70
68952;BMP180;56000;51.146;17.112;2023-05-07T08:53:13;101005.80;;;9.60
68952;BMP180;56000;51.146;17.112;2023-05-07T08:55:44;101009.20;;;9.70
68952;BMP180;56000;51.146;17.112;2023-05-07T08:58:14;101012.60;;;9.80
68952;BMP180;56000;51.146;17.112;2023-05-07T09:00:43;101015.40;;;9.98
68952;BMP180;56000;51.146;17.112;2023-05-07T09:03:13;101020.20;;;10.10
68952;BMP180;56000;51.146;17.112;2023-05-07T09:05:44;101022.60;;;10.20
68952;BMP180;56000;51.146;17.112;2023-05-07T09:08:15;101021.60;;;10.32
68952;BMP180;56000;51.146;17.112;2023-05-07T09:10:46;101024.80;;;10.40
68952;BMP180;56000;51.146;17.112;2023-05-07T09:13:17;101026.00;;;10.40
68952;BMP180;56000;51.146;17.112;2023-05-07T09:15:48;101021.20;;;10.24
68952;BMP180;56000;51.146;17.112;2023-05-07T09:18:18;101025.20;;;10.10
68952;BMP180;56000;51.146;17.112;2023-05-07T09:20:51;101029.80;;;10.10
68952;BMP180;56000;51.146;17.112;2023-05-07T09:23:22;101024.80;;;10.10
68952;BMP180;56000;51.146;17.112;2023-05-07T09:25:53;101029.60;;;10.10
68952;BMP180;56000;51.146;17.112;2023-05-07T09:28:29;101029.60;;;10.20
68952;BMP180;56000;51.146;17.112;2023-05-07T09:30:58;101029.80;;;10.20
68952;BMP180;56000;51.146;17.112;2023-05-07T09:33:28;101029.80;;;10.40
68952;BMP180;56000;51.146;17.112;2023-05-07T09:35:57;101024.20;;;10.70
68952;BMP180;56000;51.146;17.112;2023-05-07T09:38:26;101028.00;;;11.00
68952;BMP180;56000;51.146;17.112;2023-05-07T09:41:04;101026.40;;;11.30
68952;BMP180;56000;51.146;17.112;2023-05-07T09:43:36;101025.80;;;11.84
68952;BMP180;56000;51.146;17.112;2023-05-07T09:46:08;101016.20;;;12.00
68952;BMP180;56000;51.146;17.112;2023-05-07T09:48:42;101024.40;;;12.20
68952;BMP180;56000;51.146;17.112;2023-05-07T09:51:18;101016.20;;;12.10
68952;BMP180;56000;51.146;17.112;2023-05-07T09:53:50;101009.00;;;12.20
68952;BMP180;56000;51.146;17.112;2023-05-07T09:56:21;101010.40;;;12.60
68952;BMP180;56000;51.146;17.112;2023-05-07T09:58:51;101017.60;;;12.90
68952;BMP180;56000;51.146;17.112;2023-05-07T10:01:21;101012.20;;;13.20
68952;BMP180;56000;51.146;17.112;2023-05-07T10:03:51;101014.80;;;13.54
68952;BMP180;56000;51.146;17.112;2023-05-07T10:06:21;101016.60;;;13.78
68952;BMP180;56000;51.146;17.112;2023-05-07T10:08:50;101019.40;;;13.70
68952;BMP180;56000;51.146;17.112;2023-05-07T10:11:19;101022.80;;;13.50
68952;BMP180;56000;51.146;17.112;2023-05-07T10:13:49;101022.00;;;13.24
68952;BMP180;56000;51.146;17.112;2023-05-07T10:16:18;101022.20;;;13.20
68952;BMP180;56000;51.146;17.112;2023-05-07T10:18:48;101028.80;;;13.10
68952;BMP180;56000;51.146;17.112;2023-05-07T10:21:22;101026.20;;;13.20
68952;BMP180;56000;51.146;17.112;2023-05-07T10:23:56;101026.80;;;13.30
68952;BMP180;56000;51.146;17.112;2023-05-07T10:26:27;101028.00;;;13.32
68952;BMP180;56000;51.146;17.112;2023-05-07T10:28:59;101025.80;;;13.20
68952;BMP180;56000;51.146;17.112;2023-05-07T10:31:51;101036.20;;;12.90
68952;BMP180;56000;51.146;17.112;2023-05-07T10:34:24;101032.60;;;12.80
68952;BMP180;56000;51.146;17.112;2023-05-07T10:36:55;101030.20;;;12.72
68952;BMP180;56000;51.146;17.112;2023-05-07T10:39:24;101030.80;;;12.96
68952;BMP180;56000;51.146;17.112;2023-05-07T10:41:54;101033.20;;;13.10
68952;BMP180;56000;51.146;17.112;2023-05-07T10:44:26;101028.80;;;13.20
68952;BMP180;56000;51.146;17.112;2023-05-07T10:47:10;101032.60;;;13.18
68952;BMP180;56000;51.146;17.112;2023-05-07T10:50:23;101031.80;;;12.80
68952;BMP180;56000;51.146;17.112;2023-05-07T10:53:25;101031.60;;;12.72
68952;BMP180;56000;51.146;17.112;2023-05-07T10:56:34;101032.60;;;12.70
68952;BMP180;56000;51.146;17.112;2023-05-07T10:59:31;101032.20;;;12.70
68952;BMP180;56000;51.146;17.112;2023-05-07T11:02:10;101038.20;;;12.50
68952;BMP180;56000;51.146;17.112;2023-05-07T11:05:21;101038.80;;;12.38
68952;BMP180;56000;51.146;17.112;2023-05-07T11:08:16;101037.80;;;12.50
68952;BMP180;56000;51.146;17.112;2023-05-07T11:10:54;101041.00;;;12.52
68952;BMP180;56000;51.146;17.112;2023-05-07T11:13:47;101032.40;;;12.50
68952;BMP180;56000;51.146;17.112;2023-05-07T11:16:25;101030.60;;;12.50
68952;BMP180;56000;51.146;17.112;2023-05-07T11:19:02;101041.60;;;12.40
68952;BMP180;56000;51.146;17.112;2023-05-07T11:21:36;101040.20;;;12.30
68952;BMP180;56000;51.146;17.112;2023-05-07T11:24:11;101056.40;;;12.20
68952;BMP180;56000;51.146;17.112;2023-05-07T11:26:49;101057.40;;;12.10
68952;BMP180;56000;51.146;17.112;2023-05-07T11:29:19;101057.40;;;12.10
68952;BMP180;56000;51.146;17.112;2023-05-07T11:31:53;101053.80;;;12.34
68952;BMP180;56000;51.146;17.112;2023-05-07T11:34:24;101054.60;;;12.80
68952;BMP180;56000;51.146;17.112;2023-05-07T11:36:55;101060.60;;;12.80
68952;BMP180;56000;51.146;17.112;2023-05-07T11:39:33;101065.20;;;12.70
68952;BMP180;56000;51.146;17.112;2023-05-07T11:42:04;101073.00;;;12.62
68952;BMP180;56000;51.146;17.112;2023-05-07T11:44:43;101071.60;;;12.40
68952;BMP180;56000;51.146;17.112;2023-05-07T11:47:17;101075.00;;;12.10
68952;BMP180;56000;51.146;17.112;2023-05-07T11:49:47;101085.00;;;11.96
68952;BMP180;56000;51.146;17.112;2023-05-07T11:52:16;101084.80;;;11.80
68952;BMP180;56000;51.146;17.112;2023-05-07T11:54:50;101088.40;;;11.80
68952;BMP180;56000;51.146;17.112;2023-05-07T11:57:19;101087.00;;;12.10
68952;BMP180;56000;51.146;17.112;2023-05-07T11:59:47;101088.40;;;12.46
68952;BMP180;56000;51.146;17.112;2023-05-07T12:02:16;101093.60;;;12.56
68952;BMP180;56000;51.146;17.112;2023-05-07T12:04:45;101093.60;;;12.40
68952;BMP180;56000;51.146;17.112;2023-05-07T12:07:14;101091.80;;;12.10
68952;BMP180;56000;51.146;17.112;2023-05-07T12:09:43;101095.40;;;12.00
68952;BMP180;56000;51.146;17.112;2023-05-07T12:12:12;101094.40;;;12.10
68952;BMP180;56000;51.146;17.112;2023-05-07T12:14:44;101094.00;;;12.40
68952;BMP180;56000;51.146;17.112;2023-05-07T12:17:13;101088.40;;;12.60
68952;BMP180;56000;51.146;17.112;2023-05-07T12:19:43;101089.60;;;12.60
68952;BMP180;56000;51.146;17.112;2023-05-07T12:22:12;101085.80;;;12.60
68952;BMP180;56000;51.146;17.112;2023-05-07T12:24:45;101089.00;;;12.60
68952;BMP180;56000;51.146;17.112;2023-05-07T12:27:15;101091.80;;;12.50
68952;BMP180;56000;51.146;17.112;2023-05-07T12:29:45;101096.60;;;12.40
68952;BMP180;56000;51.146;17.112;2023-05-07T12:32:15;101100.00;;;12.10
68952;BMP180;56000;51.146;17.112;2023-05-07T12:34:44;101110.00;;;12.10
68952;BMP180;56000;51.146;17.112;2023-05-07T12:37:13;101107.20;;;12.08
68952;BMP180;56000;51.146;17.112;2023-05-07T12:39:47;101113.60;;;12.00
68952;BMP180;56000;51.146;17.112;2023-05-07T12:42:19;101115.60;;;12.00
68952;BMP180;56000;51.146;17.112;2023-05-07T12:44:51;101118.20;;;12.10
68952;BMP180;56000;51.146;17.112;2023-05-07T12:47:21;101116.20;;;12.20
68952;BMP180;56000;51.146;17.112;2023-05-07T12:49:50;101117.60;;;12.30
68952;BMP180;56000;51.146;17.112;2023-05-07T12:52:19;101116.20;;;12.30
68952;BMP180;56000;51.146;17.112;2023-05-07T12:54:49;101116.80;;;12.18
68952;BMP180;56000;51.146;17.112;2023-05-07T12:57:20;101114.60;;;12.06
68952;BMP180;56000;51.146;17.112;2023-05-07T12:59:49;101114.80;;;12.00
68952;BMP180;56000;51.146;17.112;2023-05-07T13:02:18;101116.40;;;11.82
68952;BMP180;56000;51.146;17.112;2023-05-07T13:04:48;101120.40;;;11.70
68952;BMP180;56000;51.146;17.112;2023-05-07T13:07:17;101126.20;;;11.70
68952;BMP180;56000;51.146;17.112;2023-05-07T13:09:46;101123.00;;;11.80
68952;BMP180;56000;51.146;17.112;2023-05-07T13:12:16;101128.80;;;11.76
68952;BMP180;56000;51.146;17.112;2023-05-07T13:14:46;101122.20;;;11.70
68952;BMP180;56000;51.146;17.112;2023-05-07T13:17:15;101131.00;;;11.70
68952;BMP180;56000;51.146;17.112;2023-05-07T13:19:46;101135.00;;;11.70
68952;BMP180;56000;51.146;17.112;2023-05-07T13:22:15;101139.60;;;11.68
68952;BMP180;56000;51.146;17.112;2023-05-07T13:24:45;101141.40;;;11.60
68952;BMP180;56000;51.146;17.112;2023-05-07T13:27:13;101145.40;;;11.70
68952;BMP180;56000;51.146;17.112;2023-05-07T13:29:42;101147.20;;;11.90
68952;BMP180;56000;51.146;17.112;2023-05-07T13:32:10;101143.00;;;12.00
68952;BMP180;56000;51.146;17.112;2023-05-07T13:34:39;101153.40;;;12.10
68952;BMP180;56000;51.146;17.112;2023-05-07T13:37:08;101154.40;;;12.08
68952;BMP180;56000;51.146;17.112;2023-05-07T13:39:39;101156.40;;;12.00
68952;BMP180;56000;51.146;17.112;2023-05-07T13:42:09;101162.00;;;11.90
68952;BMP180;56000;51.146;17.112;2023-05-07T13:44:38;101159.80;;;11.80
68952;BMP180;56000;51.146;17.112;2023-05-07T13:47:07;101158.60;;;11.72
68952;BMP180;56000;51.146;17.112;2023-05-07T13:49:36;101158.40;;;11.70
68952;BMP180;56000;51.146;17.112;2023-05-07T13:52:05;101157.20;;;11.70
68952;BMP180;56000;51.146;17.112;2023-05-07T13:54:34;101157.60;;;11.68
68952;BMP180;56000;51.146;17.112;2023-05-07T13:57:03;101160.00;;;11.70
68952;BMP180;56000;51.146;17.112;2023-05-07T13:59:32;101161.60;;;11.70
68952;BMP180;56000;51.146;17.112;2023-05-07T14:02:01;101155.20;;;11.60
68952;BMP180;56000;51.146;17.112;2023-05-07T14:04:31;101154.60;;;11.50
68952;BMP180;56000;51.146;17.112;2023-05-07T14:07:00;101150.80;;;11.40
68952;BMP180;56000;51.146;17.112;2023-05-07T14:09:29;101161.60;;;11.30
68952;BMP180;56000;51.146;17.112;2023-05-07T14:11:59;101156.40;;;11.20